Naval Amphibious Base, Virginia
Current Conditions -  °F | °C
As of 6:51 PM on Sunday 23 Nov 2014 (Local Time) from KORF Reporting Station
Overcast Overcast  
Wind Chill: 59°   Ceiling: 4500
Heat Index: 59°   Visibility: 10mi
Dew Point: 55°   Wind: 6mph
Humidity: 87%   Direction: 140°SE
Pressure: 30.04"   Gusts: NA
Location:  36.9184°N, 76.1571°W
Report Text: KORF 232351Z AUTO 14005KT 10SM BKN045 OVC050 15/13 A3004 RMK AO2 RAE08 SLP172 P0000 60000 T01500128 10178 20150 58021 TSNO
Loading
Personal Weather Stations






























Interactive Weather Map New forecast layout! Learn more

10-Day Weather Forecast

Advertisements
Track Severe Weather on mobile